createdAt,value
2023-01-02T00:00:11.528Z,57.46
2023-01-02T00:02:40.927Z,57.65
2023-01-02T00:05:07.259Z,57.04
2023-01-02T00:07:33.507Z,57.38
2023-01-02T00:09:59.801Z,57.41
2023-01-02T00:12:26.882Z,57.26
2023-01-02T00:14:53.156Z,57.48
2023-01-02T00:17:19.425Z,57.89
2023-01-02T00:19:45.667Z,57.49
2023-01-02T00:22:11.963Z,57.05
2023-01-02T00:24:38.316Z,57.59
2023-01-02T00:27:04.827Z,57.25
2023-01-02T00:29:31.053Z,57.89
2023-01-02T00:31:57.345Z,57.67
2023-01-02T00:34:23.590Z,57.84
2023-01-02T00:36:49.834Z,57.32
2023-01-02T00:39:16.158Z,57.45
2023-01-02T00:41:42.432Z,57.91
2023-01-02T00:44:08.741Z,58.12
2023-01-02T00:46:35.068Z,57.91
2023-01-02T00:49:01.432Z,57.37
2023-01-02T00:51:27.706Z,56.71
2023-01-02T00:53:53.960Z,56.74
2023-01-02T00:56:20.231Z,56.94
2023-01-02T00:58:46.502Z,57.33
2023-01-02T01:01:12.954Z,57.58
2023-01-02T01:03:39.487Z,57.76
2023-01-02T01:06:05.780Z,57.39
2023-01-02T01:08:32.029Z,57.18
2023-01-02T01:10:58.331Z,57.09
2023-01-02T01:13:24.655Z,57.33
2023-01-02T01:15:50.945Z,57.68
2023-01-02T01:18:17.276Z,57.97
2023-01-02T01:20:43.550Z,58.35
2023-01-02T01:23:09.792Z,57.67
2023-01-02T01:25:36.080Z,57.96
2023-01-02T01:28:02.392Z,58.23
2023-01-02T01:30:28.667Z,58.88
2023-01-02T01:32:54.909Z,59.63
2023-01-02T01:35:21.176Z,58.60
2023-01-02T01:37:47.424Z,58.14
2023-01-02T01:40:13.755Z,57.79
2023-01-02T01:42:40.036Z,58.28
2023-01-02T01:45:06.262Z,58.26
2023-01-02T01:47:32.580Z,57.92
2023-01-02T01:50:04.642Z,58.36
2023-01-02T01:52:31.947Z,58.90
2023-01-02T01:54:58.316Z,58.65
2023-01-02T01:57:24.570Z,58.74
2023-01-02T01:59:50.828Z,58.54
2023-01-02T02:02:17.139Z,58.43
2023-01-02T02:04:43.584Z,58.43
2023-01-02T02:07:09.904Z,58.42
2023-01-02T02:09:36.129Z,58.41
2023-01-02T02:12:02.383Z,58.13
2023-01-02T02:14:28.710Z,58.68
2023-01-02T02:16:54.979Z,57.55
2023-01-02T02:19:21.294Z,57.18
2023-01-02T02:21:47.595Z,57.01
2023-01-02T02:24:13.928Z,57.63
2023-01-02T02:26:40.172Z,57.91
2023-01-02T02:29:06.474Z,57.95
2023-01-02T02:31:32.869Z,58.18
2023-01-02T02:33:59.139Z,58.58
2023-01-02T02:36:25.541Z,58.69
2023-01-02T02:38:51.789Z,59.10
2023-01-02T02:41:18.019Z,58.80
2023-01-02T02:43:44.312Z,59.17
2023-01-02T02:46:10.759Z,58.77
2023-01-02T02:48:39.465Z,58.29
2023-01-02T02:51:09.343Z,58.21
2023-01-02T02:53:35.641Z,58.05
2023-01-02T02:56:01.907Z,57.87
2023-01-02T02:58:28.203Z,58.75
2023-01-02T03:00:54.501Z,58.69
2023-01-02T03:03:20.812Z,58.57
2023-01-02T03:05:47.066Z,58.70
2023-01-02T03:08:13.473Z,58.17
2023-01-02T03:10:39.711Z,58.93
2023-01-02T03:13:06.031Z,59.12
2023-01-02T03:15:32.495Z,59.29
2023-01-02T03:17:58.737Z,59.06
2023-01-02T03:20:25.063Z,59.75
2023-01-02T03:22:51.347Z,59.06
2023-01-02T03:25:17.578Z,58.56
2023-01-02T03:27:43.830Z,58.55
2023-01-02T03:30:10.094Z,57.73
2023-01-02T03:32:36.350Z,57.81
2023-01-02T03:35:02.607Z,57.52
2023-01-02T03:37:28.976Z,57.62
2023-01-02T03:39:55.231Z,57.34
2023-01-02T03:42:21.482Z,58.06
2023-01-02T03:44:49.799Z,58.24
2023-01-02T03:47:16.098Z,58.75
2023-01-02T03:49:42.376Z,59.12
2023-01-02T03:52:08.635Z,59.56
2023-01-02T03:54:34.930Z,59.17
2023-01-02T03:57:01.238Z,59.61
2023-01-02T03:59:27.535Z,58.94
2023-01-02T04:01:54.100Z,59.96
2023-01-02T04:04:20.468Z,59.84
2023-01-02T04:06:46.751Z,58.90
2023-01-02T04:09:12.987Z,58.94
2023-01-02T04:11:39.252Z,58.88
2023-01-02T04:14:05.592Z,59.02
2023-01-02T04:16:31.878Z,58.66
2023-01-02T04:18:58.121Z,58.59
2023-01-02T04:21:24.451Z,58.28
2023-01-02T04:23:50.714Z,57.91
2023-01-02T04:26:16.968Z,58.24
2023-01-02T04:28:43.245Z,57.76
2023-01-02T04:31:09.553Z,57.29
2023-01-02T04:33:35.879Z,57.21
2023-01-02T04:36:02.221Z,57.38
2023-01-02T04:38:28.514Z,57.49
2023-01-02T04:40:54.802Z,57.46
2023-01-02T04:43:21.136Z,57.17
2023-01-02T04:45:47.414Z,57.46
2023-01-02T04:48:13.649Z,56.60
2023-01-02T04:50:39.930Z,57.05
2023-01-02T04:53:06.222Z,55.96
2023-01-02T04:55:32.518Z,55.94
2023-01-02T04:57:58.851Z,56.77
2023-01-02T05:00:25.282Z,56.73
2023-01-02T05:02:51.551Z,56.88
2023-01-02T05:05:17.901Z,56.70
2023-01-02T05:07:44.154Z,57.53
2023-01-02T05:10:10.399Z,57.21
2023-01-02T05:12:36.683Z,57.72
2023-01-02T05:15:03.371Z,57.49
2023-01-02T05:17:29.615Z,57.16
2023-01-02T05:19:55.907Z,57.20
2023-01-02T05:22:22.172Z,56.51
2023-01-02T05:24:48.414Z,56.72
2023-01-02T05:27:14.712Z,56.73
2023-01-02T05:29:40.992Z,57.01
2023-01-02T05:32:07.211Z,57.60
2023-01-02T05:34:33.544Z,57.89
2023-01-02T05:36:59.850Z,58.38
2023-01-02T05:39:26.096Z,58.41
2023-01-02T05:41:52.476Z,58.38
2023-01-02T05:44:18.709Z,57.82
2023-01-02T05:46:45.040Z,57.65
2023-01-02T05:49:11.393Z,57.67
2023-01-02T05:51:37.720Z,57.31
2023-01-02T05:54:03.959Z,57.15
2023-01-02T05:56:30.204Z,56.96
2023-01-02T05:58:56.465Z,57.15
2023-01-02T06:01:22.787Z,57.19
2023-01-02T06:03:49.174Z,57.01
2023-01-02T06:06:15.474Z,57.09
2023-01-02T06:08:41.715Z,57.34
2023-01-02T06:11:08.015Z,57.60
2023-01-02T06:13:34.270Z,57.37
2023-01-02T06:16:00.560Z,56.74
2023-01-02T06:18:26.897Z,57.39
2023-01-02T06:20:53.156Z,56.23
2023-01-02T06:23:19.431Z,56.53
2023-01-02T06:25:45.744Z,55.89
2023-01-02T06:28:12.269Z,55.63
2023-01-02T06:30:38.521Z,55.95
2023-01-02T06:33:04.886Z,56.26
2023-01-02T06:35:31.184Z,55.94
2023-01-02T06:37:57.480Z,56.01
2023-01-02T06:40:23.786Z,56.72
2023-01-02T06:42:50.064Z,57.04
2023-01-02T06:45:16.368Z,57.52
2023-01-02T06:47:42.662Z,57.41
2023-01-02T06:50:08.915Z,57.58
2023-01-02T06:52:35.157Z,57.25
2023-01-02T06:55:01.520Z,56.87
2023-01-02T06:57:27.792Z,56.89
2023-01-02T06:59:54.033Z,56.59
2023-01-02T07:02:21.259Z,56.12
2023-01-02T07:04:47.614Z,56.34
2023-01-02T07:07:13.898Z,55.66
2023-01-02T07:09:40.141Z,56.00
2023-01-02T07:12:06.455Z,56.27
2023-01-02T07:14:32.766Z,55.80
2023-01-02T07:16:59.161Z,57.23
2023-01-02T07:19:25.557Z,56.46
2023-01-02T07:21:51.858Z,56.06
2023-01-02T07:24:18.135Z,56.36
2023-01-02T07:26:44.408Z,57.09
2023-01-02T07:29:10.703Z,56.37
2023-01-02T07:31:37.024Z,56.33
2023-01-02T07:34:03.279Z,55.40
2023-01-02T07:36:29.585Z,55.51
2023-01-02T07:38:55.855Z,55.59
2023-01-02T07:41:22.110Z,55.09
2023-01-02T07:43:48.435Z,55.87
2023-01-02T07:46:14.726Z,55.98
2023-01-02T07:48:41.023Z,56.00
2023-01-02T07:51:07.305Z,55.76
2023-01-02T07:53:33.571Z,55.75
2023-01-02T07:56:00.019Z,55.27
2023-01-02T07:58:26.342Z,54.32
2023-01-02T08:00:52.680Z,54.95
2023-01-02T08:03:18.960Z,54.78
2023-01-02T08:05:45.259Z,54.62
2023-01-02T08:08:11.546Z,54.65
2023-01-02T08:10:37.775Z,54.82
2023-01-02T08:13:04.081Z,54.79
2023-01-02T08:15:30.383Z,54.09
2023-01-02T08:17:56.622Z,54.41
2023-01-02T08:20:22.920Z,54.77
2023-01-02T08:22:49.205Z,54.49
2023-01-02T08:25:15.439Z,53.83
2023-01-02T08:27:41.749Z,53.82
2023-01-02T08:30:08.019Z,53.42
2023-01-02T08:32:34.266Z,53.52
2023-01-02T08:35:00.522Z,53.37
2023-01-02T08:37:26.780Z,53.34
2023-01-02T08:39:53.014Z,52.88
2023-01-02T08:42:19.331Z,52.51
2023-01-02T08:44:45.626Z,52.14
2023-01-02T08:47:11.873Z,51.85
2023-01-02T08:49:38.194Z,51.71
2023-01-02T08:52:04.515Z,51.58
2023-01-02T08:54:30.769Z,51.10
2023-01-02T08:56:57.079Z,51.01
2023-01-02T08:59:23.347Z,50.88
2023-01-02T09:01:49.718Z,51.22
2023-01-02T09:04:16.083Z,50.88
2023-01-02T09:06:42.457Z,50.57
2023-01-02T09:09:11.909Z,50.39
2023-01-02T09:11:38.876Z,50.68
2023-01-02T09:14:05.163Z,50.80
2023-01-02T09:16:31.436Z,51.81
2023-01-02T09:18:57.755Z,52.26
2023-01-02T09:21:24.223Z,51.51
2023-01-02T09:23:50.455Z,50.97
2023-01-02T09:26:16.696Z,51.18
2023-01-02T09:28:42.995Z,50.16
2023-01-02T09:31:12.351Z,49.51
2023-01-02T09:33:38.955Z,49.40
2023-01-02T09:36:05.292Z,48.90
2023-01-02T09:38:31.575Z,48.94
2023-01-02T09:40:57.819Z,49.12
2023-01-02T09:43:24.131Z,49.18
2023-01-02T09:45:50.399Z,52.31
2023-01-02T09:48:16.695Z,50.91
2023-01-02T09:50:42.982Z,49.04
2023-01-02T09:53:09.258Z,48.74
2023-01-02T09:55:35.566Z,48.75
2023-01-02T09:58:01.879Z,49.31
2023-01-02T10:00:28.169Z,50.71
2023-01-02T10:02:54.485Z,51.49
2023-01-02T10:05:20.933Z,52.43
2023-01-02T10:07:47.200Z,50.82
2023-01-02T10:10:13.470Z,50.77
2023-01-02T10:12:39.779Z,50.70
2023-01-02T10:15:06.051Z,50.91
2023-01-02T10:17:32.301Z,51.65
2023-01-02T10:19:58.633Z,51.88
2023-01-02T10:22:24.932Z,49.43
2023-01-02T10:24:51.186Z,49.16
2023-01-02T10:27:17.521Z,49.24
2023-01-02T10:29:43.767Z,47.88
2023-01-02T10:32:09.996Z,46.97
2023-01-02T10:34:36.242Z,46.45
2023-01-02T10:37:07.832Z,47.12
2023-01-02T10:39:34.391Z,47.12
2023-01-02T10:42:00.647Z,46.90
2023-01-02T10:44:26.914Z,46.64
2023-01-02T10:46:53.206Z,46.56
2023-01-02T10:49:19.508Z,46.79
2023-01-02T10:51:45.801Z,46.88
2023-01-02T10:54:12.420Z,47.10
2023-01-02T10:56:38.718Z,47.89
2023-01-02T10:59:04.966Z,48.78
2023-01-02T11:01:31.332Z,47.90
2023-01-02T11:03:57.731Z,46.88
2023-01-02T11:06:29.046Z,45.78
2023-01-02T11:08:56.456Z,45.57
2023-01-02T11:11:22.756Z,46.43
2023-01-02T11:13:54.023Z,46.07
2023-01-02T11:16:20.793Z,45.63
2023-01-02T11:18:47.152Z,45.38
2023-01-02T11:21:13.486Z,45.12
2023-01-02T11:23:39.731Z,44.55
2023-01-02T11:26:06.015Z,43.72
2023-01-02T11:28:32.290Z,43.70
2023-01-02T11:30:58.583Z,44.02
2023-01-02T11:33:24.916Z,46.32
2023-01-02T11:35:51.244Z,46.33
2023-01-02T11:38:21.664Z,45.57
2023-01-02T11:40:56.642Z,45.38
2023-01-02T11:43:22.878Z,44.18
2023-01-02T11:45:49.157Z,42.76
2023-01-02T11:48:15.522Z,43.50
2023-01-02T11:50:41.760Z,44.07
2023-01-02T11:53:07.995Z,42.89
2023-01-02T11:55:34.333Z,43.80
2023-01-02T11:58:00.587Z,43.43
2023-01-02T12:00:26.846Z,43.60
2023-01-02T12:02:53.206Z,43.34
2023-01-02T12:05:19.628Z,42.69
2023-01-02T12:07:45.879Z,42.01
2023-01-02T12:10:12.137Z,42.22
2023-01-02T12:12:38.430Z,42.54
2023-01-02T12:15:04.669Z,42.97
2023-01-02T12:17:30.895Z,44.22
2023-01-02T12:20:01.856Z,45.19
2023-01-02T12:22:31.257Z,44.99
2023-01-02T12:24:57.524Z,44.94
2023-01-02T12:27:23.790Z,44.37
2023-01-02T12:29:50.026Z,44.66
2023-01-02T12:32:16.461Z,44.38
2023-01-02T12:34:42.730Z,44.03
2023-01-02T12:37:08.952Z,43.58
2023-01-02T12:39:35.290Z,43.95
2023-01-02T12:42:02.500Z,44.77
2023-01-02T12:44:33.552Z,43.85
2023-01-02T12:47:00.285Z,44.52
2023-01-02T12:49:26.638Z,44.30
2023-01-02T12:51:52.912Z,43.07
2023-01-02T12:54:20.834Z,43.49
2023-01-02T12:56:47.454Z,44.35
2023-01-02T12:59:13.709Z,44.30
2023-01-02T13:01:40.069Z,44.43
2023-01-02T13:04:06.409Z,44.98
2023-01-02T13:06:43.763Z,43.79
2023-01-02T13:09:16.880Z,43.42
2023-01-02T13:11:48.323Z,43.08
2023-01-02T13:14:14.645Z,43.40
2023-01-02T13:16:40.973Z,42.80
2023-01-02T13:19:07.212Z,42.74
2023-01-02T13:21:33.449Z,43.62
2023-01-02T13:23:59.749Z,43.31
2023-01-02T13:26:26.055Z,43.32
2023-01-02T13:28:52.327Z,43.17
2023-01-02T13:31:45.312Z,42.99
2023-01-02T13:34:04.969Z,43.16
2023-01-02T13:36:31.270Z,42.97
2023-01-02T13:38:57.522Z,42.59
2023-01-02T13:41:23.860Z,42.45
2023-01-02T13:43:50.120Z,42.64
2023-01-02T13:46:45.451Z,42.69
2023-01-02T13:49:02.708Z,44.54
2023-01-02T13:51:28.940Z,46.55
2023-01-02T13:53:55.197Z,47.15
2023-01-02T13:56:21.446Z,48.93
2023-01-02T13:58:47.755Z,48.23
2023-01-02T14:01:14.058Z,47.38
2023-01-02T14:03:40.467Z,46.53
2023-01-02T14:06:06.858Z,45.66
2023-01-02T14:08:33.164Z,45.16
2023-01-02T14:10:59.423Z,44.42
2023-01-02T14:13:25.690Z,44.37
2023-01-02T14:15:51.972Z,46.05
2023-01-02T14:18:18.296Z,47.17
2023-01-02T14:20:44.638Z,47.07
2023-01-02T14:23:10.880Z,46.21
2023-01-02T14:25:37.125Z,46.69
2023-01-02T14:28:03.489Z,45.80
2023-01-02T14:30:29.717Z,45.86
2023-01-02T14:32:55.959Z,46.56
2023-01-02T14:35:22.240Z,47.60
2023-01-02T14:37:48.506Z,49.18
2023-01-02T14:40:14.781Z,49.03
2023-01-02T14:42:41.168Z,49.16
2023-01-02T14:45:07.410Z,49.11
2023-01-02T14:47:33.656Z,49.40
2023-01-02T14:49:59.959Z,49.29
2023-01-02T14:52:26.251Z,49.57
2023-01-02T14:54:52.520Z,50.14
2023-01-02T14:57:18.895Z,49.80
2023-01-02T14:59:45.175Z,49.85
2023-01-02T15:02:11.486Z,50.21
2023-01-02T15:04:37.900Z,50.40
2023-01-02T15:07:07.757Z,50.96
2023-01-02T15:09:36.001Z,51.30
2023-01-02T15:12:02.398Z,50.77
2023-01-02T15:14:29.001Z,51.60
2023-01-02T15:16:55.254Z,50.95
2023-01-02T15:19:21.614Z,51.34
2023-01-02T15:21:47.866Z,51.67
2023-01-02T15:24:14.166Z,51.39
2023-01-02T15:26:40.523Z,50.51
2023-01-02T15:29:06.757Z,50.97
2023-01-02T15:31:33.071Z,50.68
2023-01-02T15:33:59.508Z,50.62
2023-01-02T15:36:25.912Z,50.27
2023-01-02T15:38:52.194Z,50.58
2023-01-02T15:41:18.563Z,50.60
2023-01-02T15:43:44.789Z,50.35
2023-01-02T15:46:11.121Z,50.55
2023-01-02T15:48:37.486Z,50.23
2023-01-02T15:51:03.719Z,50.17
2023-01-02T15:53:29.952Z,49.89
2023-01-02T15:55:56.325Z,50.27
2023-01-02T15:58:22.566Z,50.00
2023-01-02T16:00:48.825Z,50.54
2023-01-02T16:03:15.271Z,51.43
2023-01-02T16:05:41.516Z,51.09
2023-01-02T16:08:07.748Z,50.88
2023-01-02T16:10:34.109Z,50.98
2023-01-02T16:13:00.339Z,50.13
2023-01-02T16:15:26.573Z,50.12
2023-01-02T16:17:52.927Z,50.92
2023-01-02T16:20:19.165Z,50.87
2023-01-02T16:22:45.430Z,50.35
2023-01-02T16:25:11.669Z,50.82
2023-01-02T16:27:37.908Z,51.65
2023-01-02T16:30:04.200Z,51.42
2023-01-02T16:32:30.559Z,51.07
2023-01-02T16:34:56.809Z,50.91
2023-01-02T16:37:23.068Z,50.87
2023-01-02T16:39:49.383Z,50.54
2023-01-02T16:42:15.654Z,49.91
2023-01-02T16:44:41.939Z,49.36
2023-01-02T16:47:08.281Z,49.66
2023-01-02T16:49:34.507Z,49.83
2023-01-02T16:52:00.782Z,50.18
2023-01-02T16:54:27.161Z,49.94
2023-01-02T16:56:53.404Z,50.36
2023-01-02T16:59:19.644Z,49.88
2023-01-02T17:01:46.179Z,50.29
2023-01-02T17:04:12.512Z,50.17
2023-01-02T17:06:38.755Z,49.56
2023-01-02T17:09:05.049Z,50.76
2023-01-02T17:11:31.305Z,51.36
2023-01-02T17:13:57.584Z,51.87
2023-01-02T17:16:24.091Z,51.57
2023-01-02T17:18:50.392Z,51.18
2023-01-02T17:21:18.474Z,52.15
2023-01-02T17:23:44.820Z,52.31
2023-01-02T17:26:11.087Z,52.81
2023-01-02T17:28:37.371Z,52.23
2023-01-02T17:31:03.659Z,52.83
2023-01-02T17:33:29.974Z,52.85
2023-01-02T17:35:56.376Z,52.92
2023-01-02T17:38:22.667Z,52.87
2023-01-02T17:40:48.985Z,52.68
2023-01-02T17:43:15.243Z,52.32
2023-01-02T17:45:41.581Z,52.68
2023-01-02T17:48:12.291Z,52.16
2023-01-02T17:50:54.185Z,52.93
2023-01-02T17:53:20.458Z,53.14
2023-01-02T17:55:46.710Z,52.98
2023-01-02T17:58:12.984Z,52.53
2023-01-02T18:00:39.448Z,51.96
2023-01-02T18:03:05.768Z,51.60
2023-01-02T18:05:32.035Z,51.60
2023-01-02T18:07:58.360Z,52.28
2023-01-02T18:10:29.184Z,52.88
2023-01-02T18:12:59.138Z,52.93
2023-01-02T18:15:25.359Z,52.57
2023-01-02T18:17:51.601Z,52.36
2023-01-02T18:20:18.007Z,52.29
2023-01-02T18:22:48.903Z,52.12
2023-01-02T18:25:16.076Z,52.47
2023-01-02T18:27:42.335Z,53.03
2023-01-02T18:30:08.637Z,53.04
2023-01-02T18:32:35.056Z,52.38
2023-01-02T18:35:16.210Z,52.44
2023-01-02T18:37:47.821Z,52.19
2023-01-02T18:40:14.101Z,52.07
2023-01-02T18:42:40.337Z,51.32
2023-01-02T18:45:06.795Z,50.86
2023-01-02T18:47:33.110Z,51.19
2023-01-02T18:49:59.339Z,51.09
2023-01-02T18:52:25.617Z,51.15
2023-01-02T18:54:51.851Z,50.94
2023-01-02T18:57:18.105Z,50.75
2023-01-02T18:59:44.440Z,51.33
2023-01-02T19:02:10.937Z,51.29
2023-01-02T19:04:37.258Z,51.59
2023-01-02T19:07:03.551Z,52.47
2023-01-02T19:09:29.825Z,52.36
2023-01-02T19:11:56.096Z,52.91
2023-01-02T19:14:22.409Z,52.86
2023-01-02T19:16:48.757Z,52.44
2023-01-02T19:19:15.032Z,52.76
2023-01-02T19:21:41.391Z,52.08
2023-01-02T19:24:07.846Z,51.07
2023-01-02T19:26:34.104Z,51.80
2023-01-02T19:29:00.400Z,52.62
2023-01-02T19:31:26.709Z,52.65
2023-01-02T19:33:53.021Z,52.14
2023-01-02T19:36:19.314Z,52.82
2023-01-02T19:38:45.563Z,52.06
2023-01-02T19:41:11.819Z,52.07
2023-01-02T19:43:39.028Z,52.44
2023-01-02T19:46:05.340Z,52.45
2023-01-02T19:48:31.672Z,53.02
2023-01-02T19:50:57.926Z,53.66
2023-01-02T19:53:24.215Z,54.11
2023-01-02T19:55:50.463Z,53.11
2023-01-02T19:58:16.725Z,52.42
2023-01-02T20:00:42.985Z,53.01
2023-01-02T20:03:09.431Z,53.74
2023-01-02T20:05:35.769Z,54.14
2023-01-02T20:08:02.063Z,53.11
2023-01-02T20:10:28.332Z,53.45
2023-01-02T20:12:54.663Z,52.94
2023-01-02T20:15:22.999Z,52.80
2023-01-02T20:17:49.267Z,52.89
2023-01-02T20:20:15.722Z,53.10
2023-01-02T20:22:42.050Z,52.63
2023-01-02T20:25:08.286Z,52.19
2023-01-02T20:27:34.534Z,51.39
2023-01-02T20:30:00.852Z,51.72
2023-01-02T20:32:27.114Z,52.32
2023-01-02T20:34:53.405Z,52.66
2023-01-02T20:37:19.701Z,52.71
2023-01-02T20:39:45.981Z,53.24
2023-01-02T20:42:13.757Z,53.37
2023-01-02T20:44:40.234Z,53.27
2023-01-02T20:47:06.520Z,53.56
2023-01-02T20:49:32.792Z,52.93
2023-01-02T20:51:59.422Z,53.03
2023-01-02T20:54:25.783Z,52.82
2023-01-02T20:56:52.083Z,52.63
2023-01-02T20:59:18.392Z,52.56
2023-01-02T21:01:44.811Z,52.23
2023-01-02T21:04:11.332Z,52.20
2023-01-02T21:06:37.616Z,51.56
2023-01-02T21:09:03.915Z,51.41
2023-01-02T21:11:30.210Z,51.28
2023-01-02T21:13:56.438Z,51.14
2023-01-02T21:16:22.725Z,51.26
2023-01-02T21:18:48.994Z,51.01
2023-01-02T21:21:15.232Z,52.68
2023-01-02T21:23:41.498Z,51.82
2023-01-02T21:26:07.759Z,52.31
2023-01-02T21:28:34.010Z,52.26
2023-01-02T21:31:00.339Z,53.17
2023-01-02T21:33:26.696Z,55.71
2023-01-02T21:35:52.958Z,54.88
2023-01-02T21:38:19.243Z,54.92
2023-01-02T21:40:45.571Z,54.73
2023-01-02T21:43:11.837Z,54.31
2023-01-02T21:45:38.169Z,53.96
2023-01-02T21:48:04.432Z,54.35
2023-01-02T21:50:30.707Z,53.94
2023-01-02T21:52:56.996Z,54.16
2023-01-02T21:55:23.238Z,54.44
2023-01-02T22:00:35.770Z,55.45
2023-01-02T22:03:02.189Z,53.79
2023-01-02T22:05:28.512Z,56.86
2023-01-02T22:07:54.786Z,56.60
2023-01-02T22:10:21.163Z,56.88
2023-01-02T22:12:47.401Z,57.20
2023-01-02T22:15:13.695Z,58.94
2023-01-02T22:17:40.048Z,58.89
2023-01-02T22:20:06.424Z,58.34
2023-01-02T22:22:32.715Z,58.47
2023-01-02T22:24:59.138Z,58.49
2023-01-02T22:27:25.415Z,57.13
2023-01-02T22:30:19.905Z,57.04
2023-01-02T22:32:37.860Z,57.92
2023-01-02T22:35:04.129Z,58.00
2023-01-02T22:37:30.368Z,59.36
2023-01-02T22:39:56.688Z,59.39
2023-01-02T22:42:58.471Z,59.36
2023-01-02T22:45:09.335Z,58.92
2023-01-02T22:47:35.618Z,59.03
2023-01-02T22:50:01.964Z,59.12
2023-01-02T22:52:28.743Z,59.75
2023-01-02T22:54:55.067Z,59.35
2023-01-02T22:57:21.295Z,59.75
2023-01-02T22:59:47.626Z,59.74
2023-01-02T23:02:13.943Z,61.44
2023-01-02T23:04:40.217Z,62.02
2023-01-02T23:07:23.214Z,61.74
2023-01-02T23:09:49.901Z,61.23
2023-01-02T23:12:16.163Z,60.93
2023-01-02T23:14:42.483Z,60.75
2023-01-02T23:17:08.747Z,60.51
2023-01-02T23:19:34.985Z,60.23
2023-01-02T23:22:01.231Z,60.08
2023-01-02T23:24:27.526Z,59.75
2023-01-02T23:26:53.808Z,60.42
2023-01-02T23:29:20.067Z,60.02
2023-01-02T23:31:47.173Z,60.09
2023-01-02T23:34:13.512Z,60.11
2023-01-02T23:36:39.764Z,60.50
2023-01-02T23:39:06.070Z,60.72
2023-01-02T23:41:32.373Z,61.57
2023-01-02T23:43:58.619Z,60.19
2023-01-02T23:46:24.936Z,60.85
2023-01-02T23:48:51.269Z,61.26
2023-01-02T23:51:17.503Z,61.01
2023-01-02T23:53:43.829Z,61.16
2023-01-02T23:56:10.110Z,61.44
2023-01-02T23:58:36.352Z,61.81
